Ferry Tsurugi — JI3553 — position and weather

sailwx.info

Track history (hours):
 
Tides and Currents Weather Stations Pressure Air Temp Water Temp Dewpoint Dewpoint Depression Visibility Wind Speed Wind Dir Waves Ship Positions

Ferry Tsurugi

Last reported at 2017-Dec-11 14:51 UTC. Time now 2017-Dec-13 05:16 UTC.
Position N 34°03' E 134°35'.

Length 108 m; draft 4 m.

Type: Passenger vessel. MMSI: 431500658.

Date/timePositionNaut miles runAvg speedWind from/ knotsBaromVisibWave heightAir tempDewpointWater temp
2017-Dec-11 14:51N 34°03' E 134°35'412.3
2017-Dec-11 14:30N 34°04' E 134°40'714.0
2017-Dec-11 14:00N 34°07' E 134°48'714.4
2017-Dec-11 13:30N 34°09' E 134°56'714.4
2017-Dec-11 13:01N 34°12' E 135°04'4 8.1
2017-Dec-11 12:31N 34°13' E 135°09'0 0.1
2017-Dec-11 12:01N 34°13' E 135°09'713.9
2017-Dec-11 11:30N 34°10' E 135°01'714.5
2017-Dec-11 11:00N 34°08' E 134°52'815.7
2017-Dec-11 10:30N 34°05' E 134°44'714.4
2017-Dec-11 10:00N 34°03' E 134°35'0 0.0
2017-Dec-11 09:29N 34°03' E 134°35'714.6
2017-Dec-11 09:00N 34°05' E 134°43'816.0
2017-Dec-11 08:30N 34°08' E 134°52'815.5
2017-Dec-11 08:00N 34°11' E 135°01'713.3
2017-Dec-11 07:30N 34°13' E 135°09'0 0.0
2017-Dec-11 07:00N 34°13' E 135°09'0 0.6
2017-Dec-11 06:30N 34°13' E 135°08'714.0
2017-Dec-11 06:00N 34°11' E 135°00'715.0
2017-Dec-11 05:30N 34°08' E 134°52'915.3
2017-Dec-11 04:56N 34°05' E 134°42'612.8
2017-Dec-11 04:29N 34°03' E 134°35'0 0.1
2017-Dec-11 03:48N 34°03' E 134°35'311.8
2017-Dec-11 03:30N 34°04' E 134°39'713.9
2017-Dec-11 02:59N 34°06' E 134°47'714.5
2017-Dec-11 02:30N 34°09' E 134°55'714.3
2017-Dec-11 02:00N 34°12' E 135°03'5 9.3
2017-Dec-11 01:30N 34°13' E 135°09'0 0.0
2017-Dec-11 01:00N 34°13' E 135°09'611.3
2017-Dec-11 00:30N 34°11' E 135°02'817.1
2017-Dec-11 00:01N 34°08' E 134°53'917.5
2017-Dec-10 23:30N 34°05' E 134°43'6 6.3
2017-Dec-10 22:29N 34°03' E 134°35'714.3
2017-Dec-10 22:00N 34°05' E 134°43'816.4
2017-Dec-10 21:30N 34°09' E 134°52'816.4
2017-Dec-10 21:00N 34°12' E 135°01'612.2
2017-Dec-10 20:30N 34°13' E 135°09'0 0.8
2017-Dec-10 20:01N 34°13' E 135°08'714.0
2017-Dec-10 19:30N 34°11' E 134°60'815.4
2017-Dec-10 19:01N 34°07' E 134°52'714.7
2017-Dec-10 18:30N 34°05' E 134°43'712.9
2017-Dec-10 17:58N 34°03' E 134°35'0 0.0
2017-Dec-10 14:50N 34°03' E 134°35'412.1
2017-Dec-10 14:30N 34°04' E 134°40'714.1
2017-Dec-10 14:00N 34°06' E 134°48'714.5
2017-Dec-10 13:30N 34°09' E 134°56'714.5
2017-Dec-10 13:00N 34°13' E 135°04'4 8.4
2017-Dec-10 12:30N 34°13' E 135°09'0 0.1
2017-Dec-10 12:00N 34°13' E 135°09'714.2
2017-Dec-10 11:30N 34°10' E 135°01'715.0
2017-Dec-10 11:00N 34°08' E 134°52'815.5
2017-Dec-10 10:30N 34°05' E 134°43'712.8
2017-Dec-10 09:58N 34°03' E 134°35'0 0.0
2017-Dec-10 09:25N 34°03' E 134°35'513.5
2017-Dec-10 09:01N 34°05' E 134°42'815.4
2017-Dec-10 08:30N 34°08' E 134°50'815.6
2017-Dec-10 08:01N 34°11' E 134°59'815.1
2017-Dec-10 07:31N 34°13' E 135°07'1 1.9
2017-Dec-10 07:00N 34°13' E 135°09'1 1.1
2017-Dec-10 06:30N 34°13' E 135°08'714.5
2017-Dec-10 06:00N 34°11' E 134°60'815.2
2017-Dec-10 05:30N 34°08' E 134°51'714.8
2017-Dec-10 05:00N 34°05' E 134°43'7 5.3
2017-Dec-10 03:46N 34°03' E 134°35'311.6
2017-Dec-10 03:30N 34°04' E 134°39'714.2
2017-Dec-10 02:59N 34°07' E 134°47'714.5
2017-Dec-10 02:31N 34°10' E 134°54'714.0
2017-Dec-10 02:00N 34°12' E 135°03'510.3
2017-Dec-10 01:30N 34°13' E 135°09'0 0.7
2017-Dec-10 01:00N 34°13' E 135°08'815.0
2017-Dec-10 00:30N 34°10' E 134°60'815.5
2017-Dec-10 00:00N 34°07' E 134°51'815.7
2017-Dec-09 23:30N 34°05' E 134°42'6 6.2
2017-Dec-09 22:33N 34°03' E 134°35'1 7.8
2017-Dec-09 22:27N 34°03' E 134°36'715.6
2017-Dec-09 22:00N 34°05' E 134°44'815.9
2017-Dec-09 21:30N 34°08' E 134°53'815.8
2017-Dec-09 21:00N 34°11' E 135°02'612.3
2017-Dec-09 20:30N 34°13' E 135°09'1 1.4
2017-Dec-09 20:01N 34°13' E 135°08'714.8
2017-Dec-09 19:30N 34°11' E 134°59'714.8
2017-Dec-09 19:00N 34°07' E 134°51'815.1
2017-Dec-09 18:30N 34°05' E 134°43'611.9
2017-Dec-09 17:58N 34°03' E 134°35'0 0.0
2017-Dec-09 14:50N 34°03' E 134°35'411.7
2017-Dec-09 14:29N 34°04' E 134°40'713.9
2017-Dec-09 14:00N 34°06' E 134°48'714.7
2017-Dec-09 13:31N 34°09' E 134°56'714.5
2017-Dec-09 13:00N 34°12' E 135°04'4 8.3
2017-Dec-09 12:31N 34°13' E 135°09'0 0.1
2017-Dec-09 12:01N 34°13' E 135°09'713.7
2017-Dec-09 11:30N 34°10' E 135°01'815.5
2017-Dec-09 11:00N 34°07' E 134°52'815.6
2017-Dec-09 10:30N 34°05' E 134°43'713.9
2017-Dec-09 10:01N 34°03' E 134°35'0 0.3
2017-Dec-09 09:24N 34°03' E 134°35'613.5
2017-Dec-09 08:58N 34°04' E 134°42'715.5
2017-Dec-09 08:30N 34°07' E 134°50'815.9
2017-Dec-09 08:00N 34°10' E 134°59'815.4
2017-Dec-09 07:31N 34°13' E 135°08'1 1.7
2017-Dec-09 07:00N 34°13' E 135°09'0 0.5
2017-Dec-09 06:30N 34°13' E 135°08'713.9
2017-Dec-09 06:01N 34°11' E 135°00'815.1
2017-Dec-09 05:31N 34°08' E 134°52'815.3
2017-Dec-09 04:59N 34°05' E 134°43'7 5.8
2017-Dec-09 03:50N 34°03' E 134°35'310.3
2017-Dec-09 03:30N 34°03' E 134°39'814.7
2017-Dec-09 02:59N 34°06' E 134°47'714.5
2017-Dec-09 02:30N 34°09' E 134°55'713.8
2017-Dec-09 02:00N 34°12' E 135°03'5 9.8
2017-Dec-09 01:30N 34°13' E 135°09'1 1.4
2017-Dec-09 01:01N 34°13' E 135°08'815.4
2017-Dec-09 00:30N 34°10' E 134°59'815.9
2017-Dec-09 00:00N 34°07' E 134°50'816.0
2017-Dec-08 23:30N 34°04' E 134°41'5 5.3
2017-Dec-08 22:34N 34°03' E 134°35'110.0
2017-Dec-08 22:30N 34°03' E 134°36'715.1
2017-Dec-08 22:00N 34°06' E 134°44'815.6
2017-Dec-08 21:30N 34°09' E 134°53'816.2
2017-Dec-08 21:00N 34°12' E 135°02'611.4
2017-Dec-08 20:30N 34°13' E 135°09'1 1.6
2017-Dec-08 20:01N 34°13' E 135°08'714.1
2017-Dec-08 19:31N 34°11' E 134°60'714.4
2017-Dec-08 19:00N 34°07' E 134°52'714.7
2017-Dec-08 18:30N 34°05' E 134°43'713.9
2017-Dec-08 18:00N 34°03' E 134°35'0 0.0
2017-Dec-08 14:49N 34°03' E 134°35'412.4
2017-Dec-08 14:30N 34°04' E 134°40'713.8
2017-Dec-08 14:00N 34°07' E 134°47'714.5
2017-Dec-08 13:31N 34°09' E 134°56'714.4
2017-Dec-08 13:01N 34°12' E 135°03'4 8.6
2017-Dec-08 12:30N 34°13' E 135°09'0 0.6
2017-Dec-08 12:01N 34°13' E 135°08'714.6
2017-Dec-08 11:30N 34°10' E 134°60'815.1
2017-Dec-08 11:00N 34°08' E 134°51'815.3
2017-Dec-08 10:30N 34°05' E 134°43'713.3
2017-Dec-08 10:01N 34°03' E 134°35'0 0.0
2017-Dec-08 09:30N 34°03' E 134°35'714.9
2017-Dec-08 09:00N 34°05' E 134°44'816.5
2017-Dec-08 08:30N 34°09' E 134°53'816.4
2017-Dec-08 08:01N 34°12' E 135°02'611.4
2017-Dec-08 07:30N 34°13' E 135°09'0 0.0
2017-Dec-08 07:00N 34°13' E 135°09'1 1.0
2017-Dec-08 06:30N 34°13' E 135°08'713.9
2017-Dec-08 06:00N 34°10' E 135°00'714.4
2017-Dec-08 05:30N 34°07' E 134°52'815.0
2017-Dec-08 05:00N 34°05' E 134°44'713.6
2017-Dec-08 04:28N 34°03' E 134°35'0 0.2
2017-Dec-08 03:52N 34°03' E 134°35'412.0
2017-Dec-08 03:31N 34°04' E 134°40'713.5
2017-Dec-08 03:00N 34°07' E 134°48'713.6
2017-Dec-08 02:30N 34°10' E 134°55'713.0
2017-Dec-08 02:00N 34°12' E 135°02'510.7
2017-Dec-08 01:30N 34°13' E 135°09'0 0.6
2017-Dec-08 01:00N 34°13' E 135°08'714.0
2017-Dec-08 00:30N 34°11' E 135°00'816.0
2017-Dec-08 00:00N 34°08' E 134°51'815.9
2017-Dec-07 23:30N 34°05' E 134°42'6 6.1
2017-Dec-07 22:30N 34°03' E 134°35'714.7
2017-Dec-07 22:00N 34°05' E 134°44'816.3
2017-Dec-07 21:30N 34°08' E 134°53'815.9
2017-Dec-07 21:00N 34°11' E 135°02'612.1
2017-Dec-07 20:31N 34°13' E 135°09'1 1.4
2017-Dec-07 20:00N 34°13' E 135°08'714.4
2017-Dec-07 19:30N 34°10' E 134°60'714.7
2017-Dec-07 19:00N 34°07' E 134°52'714.7
2017-Dec-07 18:30N 34°05' E 134°43'7 1.8
2017-Dec-07 14:49N 34°03' E 134°35'411.9
2017-Dec-07 14:30N 34°04' E 134°40'714.1
2017-Dec-07 14:00N 34°06' E 134°47'714.5
2017-Dec-07 13:31N 34°09' E 134°56'714.3
2017-Dec-07 13:00N 34°12' E 135°04'4 8.6
2017-Dec-07 12:30N 34°13' E 135°09'0 0.1
2017-Dec-07 12:01N 34°13' E 135°09'713.6
2017-Dec-07 11:30N 34°11' E 135°01'815.6
2017-Dec-07 11:00N 34°08' E 134°52'815.3
2017-Dec-07 10:30N 34°05' E 134°43'714.0
2017-Dec-07 10:01N 34°03' E 134°35'0 0.2
2017-Dec-07 09:24N 34°03' E 134°35'513.4
2017-Dec-07 09:01N 34°05' E 134°41'815.3
2017-Dec-07 08:30N 34°08' E 134°50'816.0
2017-Dec-07 08:01N 34°11' E 134°59'815.3
2017-Dec-07 07:30N 34°13' E 135°08'1 1.8
2017-Dec-07 07:01N 34°13' E 135°09'0 0.8
2017-Dec-07 06:31N 34°13' E 135°08'714.2
2017-Dec-07 06:00N 34°11' E 134°60'714.9
2017-Dec-07 05:30N 34°08' E 134°51'815.0
2017-Dec-07 04:59N 34°05' E 134°43'613.5
2017-Dec-07 04:30N 34°03' E 134°35'0 0.3
2017-Dec-07 03:45N 34°03' E 134°35'311.3
2017-Dec-07 03:30N 34°04' E 134°39'714.3
2017-Dec-07 03:01N 34°07' E 134°46'714.4
2017-Dec-07 02:30N 34°10' E 134°54'714.0
2017-Dec-07 02:01N 34°12' E 135°02'510.8
2017-Dec-07 01:30N 34°13' E 135°09'1 1.5
2017-Dec-07 01:00N 34°13' E 135°08'714.2
2017-Dec-07 00:30N 34°11' E 134°59'815.5
2017-Dec-07 00:00N 34°08' E 134°51'815.8
2017-Dec-06 23:30N 34°05' E 134°42'6 9.1
2017-Dec-06 22:51N 34°03' E 134°35'0 0.6
2017-Dec-06 22:30N 34°03' E 134°35'714.3
2017-Dec-06 22:00N 34°06' E 134°43'815.9
2017-Dec-06 21:30N 34°09' E 134°52'816.4
2017-Dec-06 21:00N 34°11' E 135°02'  
2017-Dec-04 10:27N 34°05' E 134°42'6 5.9
2017-Dec-04 09:26N 34°03' E 134°35'613.2
2017-Dec-04 09:00N 34°04' E 134°42'815.5
2017-Dec-04 08:30N 34°07' E 134°50'815.8
2017-Dec-04 08:00N 34°11' E 134°59'715.0
2017-Dec-04 07:31N 34°13' E 135°08'1 1.7
2017-Dec-04 07:00N 34°13' E 135°09'1 1.1
2017-Dec-04 06:31N 34°13' E 135°08'714.8
2017-Dec-04 06:00N 34°10' E 134°59'714.9
2017-Dec-04 05:30N 34°07' E 134°51'714.9
2017-Dec-04 05:00N 34°05' E 134°43'6 5.2
2017-Dec-04 03:45N 34°03' E 134°35'312.2
2017-Dec-04 03:30N 34°03' E 134°39'713.6
2017-Dec-04 03:00N 34°06' E 134°46'714.1
2017-Dec-04 02:30N 34°09' E 134°54'713.8
2017-Dec-04 02:00N 34°11' E 135°02'611.3
2017-Dec-04 01:30N 34°13' E 135°09'1 1.1
2017-Dec-04 01:01N 34°13' E 135°08'714.5
2017-Dec-04 00:30N 34°11' E 134°59'815.5
2017-Dec-04 00:00N 34°08' E 134°51'815.8
2017-Dec-03 23:30N 34°05' E 134°42'611.8
2017-Dec-03 22:59N 34°03' E 134°35'1 1.6
2017-Dec-03 22:30N 34°03' E 134°36'714.7
2017-Dec-03 22:00N 34°06' E 134°44'815.4
2017-Dec-03 21:30N 34°08' E 134°53'815.9
2017-Dec-03 21:00N 34°12' E 135°02'612.1
2017-Dec-03 20:30N 34°13' E 135°09'1 1.3
2017-Dec-03 20:00N 34°13' E 135°08'714.0
2017-Dec-03 19:30N 34°11' E 134°60'714.5
2017-Dec-03 19:00N 34°08' E 134°52'814.8
2017-Dec-03 18:30N 34°05' E 134°43'7 2.6
2017-Dec-03 15:49N 34°03' E 134°35'0 0.2
2017-Dec-03 15:30N 34°03' E 134°35'0 0.0
2017-Dec-03 14:55N 34°03' E 134°35'4 9.3
2017-Dec-03 14:30N 34°04' E 134°40'713.8
2017-Dec-03 14:00N 34°06' E 134°48'714.5
2017-Dec-03 13:30N 34°09' E 134°56'714.3
2017-Dec-03 13:00N 34°12' E 135°03'4 8.8
2017-Dec-03 12:30N 34°13' E 135°09'0 0.1
2017-Dec-03 12:00N 34°13' E 135°09'713.0
2017-Dec-03 11:30N 34°11' E 135°01'815.3
2017-Dec-03 11:00N 34°08' E 134°53'815.7
2017-Dec-03 10:30N 34°05' E 134°44'714.4
2017-Dec-03 10:00N 34°03' E 134°35'0 0.4
2017-Dec-03 09:29N 34°03' E 134°35'611.4
2017-Dec-03 09:00N 34°04' E 134°42'815.5
2017-Dec-03 08:30N 34°07' E 134°50'815.6
2017-Dec-03 08:00N 34°10' E 134°59'815.0
2017-Dec-03 07:30N 34°13' E 135°07'1 1.9
2017-Dec-03 07:01N 34°13' E 135°09'1 1.4
2017-Dec-03 06:30N 34°13' E 135°08'714.2
2017-Dec-03 06:00N 34°10' E 134°60'714.6
2017-Dec-03 05:30N 34°07' E 134°52'714.8
2017-Dec-03 05:00N 34°05' E 134°43'713.8
2017-Dec-03 04:30N 34°03' E 134°35'0 0.1
2017-Dec-03 03:46N 34°03' E 134°35'312.6
2017-Dec-03 03:29N 34°04' E 134°39'713.5
2017-Dec-03 03:00N 34°05' E 134°47'714.1
2017-Dec-03 02:30N 34°08' E 134°55'714.3
2017-Dec-03 02:00N 34°11' E 135°02'510.8
2017-Dec-03 01:30N 34°13' E 135°09'1 1.0
2017-Dec-03 01:01N 34°13' E 135°08'714.5
2017-Dec-03 00:30N 34°09' E 135°00'815.3
2017-Dec-03 00:00N 34°07' E 134°51'816.1
2017-Dec-02 23:30N 34°05' E 134°42'6 6.9
2017-Dec-02 22:36N 34°03' E 134°35'1 5.9
2017-Dec-02 22:30N 34°03' E 134°36'714.4
2017-Dec-02 22:00N 34°05' E 134°44'815.9
2017-Dec-02 21:30N 34°09' E 134°52'816.1
2017-Dec-02 21:00N 34°11' E 135°02'612.2
2017-Dec-02 20:30N 34°13' E 135°09'1 1.4
2017-Dec-02 20:00N 34°13' E 135°08'714.3
2017-Dec-02 19:30N 34°11' E 134°60'714.9
2017-Dec-02 19:00N 34°08' E 134°51'815.0
2017-Dec-02 18:29N 34°05' E 134°42'6 1.7
2017-Dec-02 14:49N 34°03' E 134°35'411.1
2017-Dec-02 14:30N 34°04' E 134°39'713.9
2017-Dec-02 14:00N 34°06' E 134°47'714.7
2017-Dec-02 13:30N 34°09' E 134°55'714.6
2017-Dec-02 13:00N 34°12' E 135°03'4 8.8
2017-Dec-02 12:31N 34°13' E 135°09'0 0.1
2017-Dec-02 12:00N 34°13' E 135°09'713.1
2017-Dec-02 11:30N 34°11' E 135°01'815.5
2017-Dec-02 11:00N 34°08' E 134°53'815.7
2017-Dec-02 10:30N 34°05' E 134°44'714.3
2017-Dec-02 10:00N 34°03' E 134°35'0 0.3
2017-Dec-02 09:27N 34°03' E 134°35'612.6
2017-Dec-02 09:00N 34°05' E 134°42'815.8
2017-Dec-02 08:31N 34°07' E 134°51'815.8
2017-Dec-02 08:00N 34°11' E 134°59'714.8
2017-Dec-02 07:30N 34°13' E 135°08'1 1.5
2017-Dec-02 07:00N 34°13' E 135°09'1 1.1
2017-Dec-02 06:31N 34°13' E 135°08'714.4
2017-Dec-02 06:00N 34°10' E 134°60'714.7
2017-Dec-02 05:30N 34°07' E 134°52'815.2
2017-Dec-02 04:59N 34°05' E 134°43'613.0
2017-Dec-02 04:30N 34°03' E 134°35'0 0.3
2017-Dec-02 03:46N 34°03' E 134°35'310.8
2017-Dec-02 03:30N 34°03' E 134°39'714.0
2017-Dec-02 02:59N 34°05' E 134°47'714.5
2017-Dec-02 02:30N 34°08' E 134°54'714.7
2017-Dec-02 02:00N 34°11' E 135°03'510.6
2017-Dec-02 01:31N 34°13' E 135°09'0 0.8
2017-Dec-02 01:01N 34°13' E 135°08'815.0
2017-Dec-02 00:30N 34°10' E 134°60'815.7
2017-Dec-02 00:01N 34°07' E 134°51'816.1
2017-Dec-01 23:30N 34°05' E 134°41'5 6.1
2017-Dec-01 22:37N 34°03' E 134°35'112.2
2017-Dec-01 22:30N 34°03' E 134°37'815.8
2017-Dec-01 22:00N 34°06' E 134°45'713.1
2017-Dec-01 21:30N 34°08' E 134°53'815.7
2017-Dec-01 21:00N 34°11' E 135°02'612.1
2017-Dec-01 20:30N 34°13' E 135°09'1 1.5
2017-Dec-01 20:01N 34°13' E 135°08'713.9
2017-Dec-01 19:30N 34°10' E 134°60'714.6
2017-Dec-01 19:00N 34°08' E 134°52'814.9
2017-Dec-01 18:30N 34°05' E 134°43'713.9
2017-Dec-01 18:00N 34°03' E 134°35'  
Track history (hours):
 
Tides and Currents Weather Stations Pressure Air Temp Water Temp Dewpoint Dewpoint Depression Visibility Wind Speed Wind Dir Waves Ship Positions

Ferry Tsurugi

Last reported at 2017-Dec-11 14:51 UTC. Time now 2017-Dec-13 05:16 UTC.
Position N 34°03' E 134°35'.

Length 108 m; draft 4 m.

Type: Passenger vessel. MMSI: 431500658.

Date/timePositionNaut miles runAvg speedWind from/ knotsBaromVisibWave heightAir tempDewpointWater temp
2017-Dec-11 14:51N 34°03' E 134°35'412.3
2017-Dec-11 14:30N 34°04' E 134°40'714.0
2017-Dec-11 14:00N 34°07' E 134°48'714.4
2017-Dec-11 13:30N 34°09' E 134°56'714.4
2017-Dec-11 13:01N 34°12' E 135°04'4 8.1
2017-Dec-11 12:31N 34°13' E 135°09'0 0.1
2017-Dec-11 12:01N 34°13' E 135°09'713.9
2017-Dec-11 11:30N 34°10' E 135°01'714.5
2017-Dec-11 11:00N 34°08' E 134°52'815.7
2017-Dec-11 10:30N 34°05' E 134°44'714.4
2017-Dec-11 10:00N 34°03' E 134°35'0 0.0
2017-Dec-11 09:29N 34°03' E 134°35'714.6
2017-Dec-11 09:00N 34°05' E 134°43'816.0
2017-Dec-11 08:30N 34°08' E 134°52'815.5
2017-Dec-11 08:00N 34°11' E 135°01'713.3
2017-Dec-11 07:30N 34°13' E 135°09'0 0.0
2017-Dec-11 07:00N 34°13' E 135°09'0 0.6
2017-Dec-11 06:30N 34°13' E 135°08'714.0
2017-Dec-11 06:00N 34°11' E 135°00'715.0
2017-Dec-11 05:30N 34°08' E 134°52'915.3
2017-Dec-11 04:56N 34°05' E 134°42'612.8
2017-Dec-11 04:29N 34°03' E 134°35'0 0.1
2017-Dec-11 03:48N 34°03' E 134°35'311.8
2017-Dec-11 03:30N 34°04' E 134°39'713.9
2017-Dec-11 02:59N 34°06' E 134°47'714.5
2017-Dec-11 02:30N 34°09' E 134°55'714.3
2017-Dec-11 02:00N 34°12' E 135°03'5 9.3
2017-Dec-11 01:30N 34°13' E 135°09'0 0.0
2017-Dec-11 01:00N 34°13' E 135°09'611.3
2017-Dec-11 00:30N 34°11' E 135°02'817.1
2017-Dec-11 00:01N 34°08' E 134°53'917.5
2017-Dec-10 23:30N 34°05' E 134°43'6 6.3
2017-Dec-10 22:29N 34°03' E 134°35'714.3
2017-Dec-10 22:00N 34°05' E 134°43'816.4
2017-Dec-10 21:30N 34°09' E 134°52'816.4
2017-Dec-10 21:00N 34°12' E 135°01'612.2
2017-Dec-10 20:30N 34°13' E 135°09'0 0.8
2017-Dec-10 20:01N 34°13' E 135°08'714.0
2017-Dec-10 19:30N 34°11' E 134°60'815.4
2017-Dec-10 19:01N 34°07' E 134°52'714.7
2017-Dec-10 18:30N 34°05' E 134°43'712.9
2017-Dec-10 17:58N 34°03' E 134°35'0 0.0
2017-Dec-10 14:50N 34°03' E 134°35'412.1
2017-Dec-10 14:30N 34°04' E 134°40'714.1
2017-Dec-10 14:00N 34°06' E 134°48'714.5
2017-Dec-10 13:30N 34°09' E 134°56'714.5
2017-Dec-10 13:00N 34°13' E 135°04'4 8.4
2017-Dec-10 12:30N 34°13' E 135°09'0 0.1
2017-Dec-10 12:00N 34°13' E 135°09'714.2
2017-Dec-10 11:30N 34°10' E 135°01'715.0
2017-Dec-10 11:00N 34°08' E 134°52'815.5
2017-Dec-10 10:30N 34°05' E 134°43'712.8
2017-Dec-10 09:58N 34°03' E 134°35'0 0.0
2017-Dec-10 09:25N 34°03' E 134°35'513.5
2017-Dec-10 09:01N 34°05' E 134°42'815.4
2017-Dec-10 08:30N 34°08' E 134°50'815.6
2017-Dec-10 08:01N 34°11' E 134°59'815.1
2017-Dec-10 07:31N 34°13' E 135°07'1 1.9
2017-Dec-10 07:00N 34°13' E 135°09'1 1.1
2017-Dec-10 06:30N 34°13' E 135°08'714.5
2017-Dec-10 06:00N 34°11' E 134°60'815.2
2017-Dec-10 05:30N 34°08' E 134°51'714.8
2017-Dec-10 05:00N 34°05' E 134°43'7 5.3
2017-Dec-10 03:46N 34°03' E 134°35'311.6
2017-Dec-10 03:30N 34°04' E 134°39'714.2
2017-Dec-10 02:59N 34°07' E 134°47'714.5
2017-Dec-10 02:31N 34°10' E 134°54'714.0
2017-Dec-10 02:00N 34°12' E 135°03'510.3
2017-Dec-10 01:30N 34°13' E 135°09'0 0.7
2017-Dec-10 01:00N 34°13' E 135°08'815.0
2017-Dec-10 00:30N 34°10' E 134°60'815.5
2017-Dec-10 00:00N 34°07' E 134°51'815.7
2017-Dec-09 23:30N 34°05' E 134°42'6 6.2
2017-Dec-09 22:33N 34°03' E 134°35'1 7.8
2017-Dec-09 22:27N 34°03' E 134°36'715.6
2017-Dec-09 22:00N 34°05' E 134°44'815.9
2017-Dec-09 21:30N 34°08' E 134°53'815.8
2017-Dec-09 21:00N 34°11' E 135°02'612.3
2017-Dec-09 20:30N 34°13' E 135°09'1 1.4
2017-Dec-09 20:01N 34°13' E 135°08'714.8
2017-Dec-09 19:30N 34°11' E 134°59'714.8
2017-Dec-09 19:00N 34°07' E 134°51'815.1
2017-Dec-09 18:30N 34°05' E 134°43'611.9
2017-Dec-09 17:58N 34°03' E 134°35'0 0.0
2017-Dec-09 14:50N 34°03' E 134°35'411.7
2017-Dec-09 14:29N 34°04' E 134°40'713.9
2017-Dec-09 14:00N 34°06' E 134°48'714.7
2017-Dec-09 13:31N 34°09' E 134°56'714.5
2017-Dec-09 13:00N 34°12' E 135°04'4 8.3
2017-Dec-09 12:31N 34°13' E 135°09'0 0.1
2017-Dec-09 12:01N 34°13' E 135°09'713.7
2017-Dec-09 11:30N 34°10' E 135°01'815.5
2017-Dec-09 11:00N 34°07' E 134°52'815.6
2017-Dec-09 10:30N 34°05' E 134°43'713.9
2017-Dec-09 10:01N 34°03' E 134°35'0 0.3
2017-Dec-09 09:24N 34°03' E 134°35'613.5
2017-Dec-09 08:58N 34°04' E 134°42'715.5
2017-Dec-09 08:30N 34°07' E 134°50'815.9
2017-Dec-09 08:00N 34°10' E 134°59'815.4
2017-Dec-09 07:31N 34°13' E 135°08'1 1.7
2017-Dec-09 07:00N 34°13' E 135°09'0 0.5
2017-Dec-09 06:30N 34°13' E 135°08'713.9
2017-Dec-09 06:01N 34°11' E 135°00'815.1
2017-Dec-09 05:31N 34°08' E 134°52'815.3
2017-Dec-09 04:59N 34°05' E 134°43'7 5.8
2017-Dec-09 03:50N 34°03' E 134°35'310.3
2017-Dec-09 03:30N 34°03' E 134°39'814.7
2017-Dec-09 02:59N 34°06' E 134°47'714.5
2017-Dec-09 02:30N 34°09' E 134°55'713.8
2017-Dec-09 02:00N 34°12' E 135°03'5 9.8
2017-Dec-09 01:30N 34°13' E 135°09'1 1.4
2017-Dec-09 01:01N 34°13' E 135°08'815.4
2017-Dec-09 00:30N 34°10' E 134°59'815.9
2017-Dec-09 00:00N 34°07' E 134°50'816.0
2017-Dec-08 23:30N 34°04' E 134°41'5 5.3
2017-Dec-08 22:34N 34°03' E 134°35'110.0
2017-Dec-08 22:30N 34°03' E 134°36'715.1
2017-Dec-08 22:00N 34°06' E 134°44'815.6
2017-Dec-08 21:30N 34°09' E 134°53'816.2
2017-Dec-08 21:00N 34°12' E 135°02'611.4
2017-Dec-08 20:30N 34°13' E 135°09'1 1.6
2017-Dec-08 20:01N 34°13' E 135°08'714.1
2017-Dec-08 19:31N 34°11' E 134°60'714.4
2017-Dec-08 19:00N 34°07' E 134°52'714.7
2017-Dec-08 18:30N 34°05' E 134°43'713.9
2017-Dec-08 18:00N 34°03' E 134°35'0 0.0
2017-Dec-08 14:49N 34°03' E 134°35'412.4
2017-Dec-08 14:30N 34°04' E 134°40'713.8
2017-Dec-08 14:00N 34°07' E 134°47'714.5
2017-Dec-08 13:31N 34°09' E 134°56'714.4
2017-Dec-08 13:01N 34°12' E 135°03'4 8.6
2017-Dec-08 12:30N 34°13' E 135°09'0 0.6
2017-Dec-08 12:01N 34°13' E 135°08'714.6
2017-Dec-08 11:30N 34°10' E 134°60'815.1
2017-Dec-08 11:00N 34°08' E 134°51'815.3
2017-Dec-08 10:30N 34°05' E 134°43'713.3
2017-Dec-08 10:01N 34°03' E 134°35'0 0.0
2017-Dec-08 09:30N 34°03' E 134°35'714.9
2017-Dec-08 09:00N 34°05' E 134°44'816.5
2017-Dec-08 08:30N 34°09' E 134°53'816.4
2017-Dec-08 08:01N 34°12' E 135°02'611.4
2017-Dec-08 07:30N 34°13' E 135°09'0 0.0
2017-Dec-08 07:00N 34°13' E 135°09'1 1.0
2017-Dec-08 06:30N 34°13' E 135°08'713.9
2017-Dec-08 06:00N 34°10' E 135°00'714.4
2017-Dec-08 05:30N 34°07' E 134°52'815.0
2017-Dec-08 05:00N 34°05' E 134°44'713.6
2017-Dec-08 04:28N 34°03' E 134°35'0 0.2
2017-Dec-08 03:52N 34°03' E 134°35'412.0
2017-Dec-08 03:31N 34°04' E 134°40'713.5
2017-Dec-08 03:00N 34°07' E 134°48'713.6
2017-Dec-08 02:30N 34°10' E 134°55'713.0
2017-Dec-08 02:00N 34°12' E 135°02'510.7
2017-Dec-08 01:30N 34°13' E 135°09'0 0.6
2017-Dec-08 01:00N 34°13' E 135°08'714.0
2017-Dec-08 00:30N 34°11' E 135°00'816.0
2017-Dec-08 00:00N 34°08' E 134°51'815.9
2017-Dec-07 23:30N 34°05' E 134°42'6 6.1
2017-Dec-07 22:30N 34°03' E 134°35'714.7
2017-Dec-07 22:00N 34°05' E 134°44'816.3
2017-Dec-07 21:30N 34°08' E 134°53'815.9
2017-Dec-07 21:00N 34°11' E 135°02'612.1
2017-Dec-07 20:31N 34°13' E 135°09'1 1.4
2017-Dec-07 20:00N 34°13' E 135°08'714.4
2017-Dec-07 19:30N 34°10' E 134°60'714.7
2017-Dec-07 19:00N 34°07' E 134°52'714.7
2017-Dec-07 18:30N 34°05' E 134°43'7 1.8
2017-Dec-07 14:49N 34°03' E 134°35'411.9
2017-Dec-07 14:30N 34°04' E 134°40'714.1
2017-Dec-07 14:00N 34°06' E 134°47'714.5
2017-Dec-07 13:31N 34°09' E 134°56'714.3
2017-Dec-07 13:00N 34°12' E 135°04'4 8.6
2017-Dec-07 12:30N 34°13' E 135°09'0 0.1
2017-Dec-07 12:01N 34°13' E 135°09'713.6
2017-Dec-07 11:30N 34°11' E 135°01'815.6
2017-Dec-07 11:00N 34°08' E 134°52'815.3
2017-Dec-07 10:30N 34°05' E 134°43'714.0
2017-Dec-07 10:01N 34°03' E 134°35'0 0.2
2017-Dec-07 09:24N 34°03' E 134°35'513.4
2017-Dec-07 09:01N 34°05' E 134°41'815.3
2017-Dec-07 08:30N 34°08' E 134°50'816.0
2017-Dec-07 08:01N 34°11' E 134°59'815.3
2017-Dec-07 07:30N 34°13' E 135°08'1 1.8
2017-Dec-07 07:01N 34°13' E 135°09'0 0.8
2017-Dec-07 06:31N 34°13' E 135°08'714.2
2017-Dec-07 06:00N 34°11' E 134°60'714.9
2017-Dec-07 05:30N 34°08' E 134°51'815.0
2017-Dec-07 04:59N 34°05' E 134°43'613.5
2017-Dec-07 04:30N 34°03' E 134°35'0 0.3
2017-Dec-07 03:45N 34°03' E 134°35'311.3
2017-Dec-07 03:30N 34°04' E 134°39'714.3
2017-Dec-07 03:01N 34°07' E 134°46'714.4
2017-Dec-07 02:30N 34°10' E 134°54'714.0
2017-Dec-07 02:01N 34°12' E 135°02'510.8
2017-Dec-07 01:30N 34°13' E 135°09'1 1.5
2017-Dec-07 01:00N 34°13' E 135°08'714.2
2017-Dec-07 00:30N 34°11' E 134°59'815.5
2017-Dec-07 00:00N 34°08' E 134°51'815.8
2017-Dec-06 23:30N 34°05' E 134°42'6 9.1
2017-Dec-06 22:51N 34°03' E 134°35'0 0.6
2017-Dec-06 22:30N 34°03' E 134°35'714.3
2017-Dec-06 22:00N 34°06' E 134°43'815.9
2017-Dec-06 21:30N 34°09' E 134°52'816.4
2017-Dec-06 21:00N 34°11' E 135°02'  
2017-Dec-04 10:27N 34°05' E 134°42'6 5.9
2017-Dec-04 09:26N 34°03' E 134°35'613.2
2017-Dec-04 09:00N 34°04' E 134°42'815.5
2017-Dec-04 08:30N 34°07' E 134°50'815.8
2017-Dec-04 08:00N 34°11' E 134°59'715.0
2017-Dec-04 07:31N 34°13' E 135°08'1 1.7
2017-Dec-04 07:00N 34°13' E 135°09'1 1.1
2017-Dec-04 06:31N 34°13' E 135°08'714.8
2017-Dec-04 06:00N 34°10' E 134°59'714.9
2017-Dec-04 05:30N 34°07' E 134°51'714.9
2017-Dec-04 05:00N 34°05' E 134°43'6 5.2
2017-Dec-04 03:45N 34°03' E 134°35'312.2
2017-Dec-04 03:30N 34°03' E 134°39'713.6
2017-Dec-04 03:00N 34°06' E 134°46'714.1
2017-Dec-04 02:30N 34°09' E 134°54'713.8
2017-Dec-04 02:00N 34°11' E 135°02'611.3
2017-Dec-04 01:30N 34°13' E 135°09'1 1.1
2017-Dec-04 01:01N 34°13' E 135°08'714.5
2017-Dec-04 00:30N 34°11' E 134°59'815.5
2017-Dec-04 00:00N 34°08' E 134°51'815.8
2017-Dec-03 23:30N 34°05' E 134°42'611.8
2017-Dec-03 22:59N 34°03' E 134°35'1 1.6
2017-Dec-03 22:30N 34°03' E 134°36'714.7
2017-Dec-03 22:00N 34°06' E 134°44'815.4
2017-Dec-03 21:30N 34°08' E 134°53'815.9
2017-Dec-03 21:00N 34°12' E 135°02'612.1
2017-Dec-03 20:30N 34°13' E 135°09'1 1.3
2017-Dec-03 20:00N 34°13' E 135°08'714.0
2017-Dec-03 19:30N 34°11' E 134°60'714.5
2017-Dec-03 19:00N 34°08' E 134°52'814.8
2017-Dec-03 18:30N 34°05' E 134°43'7 2.6
2017-Dec-03 15:49N 34°03' E 134°35'0 0.2
2017-Dec-03 15:30N 34°03' E 134°35'0 0.0
2017-Dec-03 14:55N 34°03' E 134°35'4 9.3
2017-Dec-03 14:30N 34°04' E 134°40'713.8
2017-Dec-03 14:00N 34°06' E 134°48'714.5
2017-Dec-03 13:30N 34°09' E 134°56'714.3
2017-Dec-03 13:00N 34°12' E 135°03'4 8.8
2017-Dec-03 12:30N 34°13' E 135°09'0 0.1
2017-Dec-03 12:00N 34°13' E 135°09'713.0
2017-Dec-03 11:30N 34°11' E 135°01'815.3
2017-Dec-03 11:00N 34°08' E 134°53'815.7
2017-Dec-03 10:30N 34°05' E 134°44'714.4
2017-Dec-03 10:00N 34°03' E 134°35'0 0.4
2017-Dec-03 09:29N 34°03' E 134°35'611.4
2017-Dec-03 09:00N 34°04' E 134°42'815.5
2017-Dec-03 08:30N 34°07' E 134°50'815.6
2017-Dec-03 08:00N 34°10' E 134°59'815.0
2017-Dec-03 07:30N 34°13' E 135°07'1 1.9
2017-Dec-03 07:01N 34°13' E 135°09'1 1.4
2017-Dec-03 06:30N 34°13' E 135°08'714.2
2017-Dec-03 06:00N 34°10' E 134°60'714.6
2017-Dec-03 05:30N 34°07' E 134°52'714.8
2017-Dec-03 05:00N 34°05' E 134°43'713.8
2017-Dec-03 04:30N 34°03' E 134°35'0 0.1
2017-Dec-03 03:46N 34°03' E 134°35'312.6
2017-Dec-03 03:29N 34°04' E 134°39'713.5
2017-Dec-03 03:00N 34°05' E 134°47'714.1
2017-Dec-03 02:30N 34°08' E 134°55'714.3
2017-Dec-03 02:00N 34°11' E 135°02'510.8
2017-Dec-03 01:30N 34°13' E 135°09'1 1.0
2017-Dec-03 01:01N 34°13' E 135°08'714.5
2017-Dec-03 00:30N 34°09' E 135°00'815.3
2017-Dec-03 00:00N 34°07' E 134°51'816.1
2017-Dec-02 23:30N 34°05' E 134°42'6 6.9
2017-Dec-02 22:36N 34°03' E 134°35'1 5.9
2017-Dec-02 22:30N 34°03' E 134°36'714.4
2017-Dec-02 22:00N 34°05' E 134°44'815.9
2017-Dec-02 21:30N 34°09' E 134°52'816.1
2017-Dec-02 21:00N 34°11' E 135°02'612.2
2017-Dec-02 20:30N 34°13' E 135°09'1 1.4
2017-Dec-02 20:00N 34°13' E 135°08'714.3
2017-Dec-02 19:30N 34°11' E 134°60'714.9
2017-Dec-02 19:00N 34°08' E 134°51'815.0
2017-Dec-02 18:29N 34°05' E 134°42'6 1.7
2017-Dec-02 14:49N 34°03' E 134°35'411.1
2017-Dec-02 14:30N 34°04' E 134°39'713.9
2017-Dec-02 14:00N 34°06' E 134°47'714.7
2017-Dec-02 13:30N 34°09' E 134°55'714.6
2017-Dec-02 13:00N 34°12' E 135°03'4 8.8
2017-Dec-02 12:31N 34°13' E 135°09'0 0.1
2017-Dec-02 12:00N 34°13' E 135°09'713.1
2017-Dec-02 11:30N 34°11' E 135°01'815.5
2017-Dec-02 11:00N 34°08' E 134°53'815.7
2017-Dec-02 10:30N 34°05' E 134°44'714.3
2017-Dec-02 10:00N 34°03' E 134°35'0 0.3
2017-Dec-02 09:27N 34°03' E 134°35'612.6
2017-Dec-02 09:00N 34°05' E 134°42'815.8
2017-Dec-02 08:31N 34°07' E 134°51'815.8
2017-Dec-02 08:00N 34°11' E 134°59'714.8
2017-Dec-02 07:30N 34°13' E 135°08'1 1.5
2017-Dec-02 07:00N 34°13' E 135°09'1 1.1
2017-Dec-02 06:31N 34°13' E 135°08'714.4
2017-Dec-02 06:00N 34°10' E 134°60'714.7
2017-Dec-02 05:30N 34°07' E 134°52'815.2
2017-Dec-02 04:59N 34°05' E 134°43'613.0
2017-Dec-02 04:30N 34°03' E 134°35'0 0.3
2017-Dec-02 03:46N 34°03' E 134°35'310.8
2017-Dec-02 03:30N 34°03' E 134°39'714.0
2017-Dec-02 02:59N 34°05' E 134°47'714.5
2017-Dec-02 02:30N 34°08' E 134°54'714.7
2017-Dec-02 02:00N 34°11' E 135°03'510.6
2017-Dec-02 01:31N 34°13' E 135°09'0 0.8
2017-Dec-02 01:01N 34°13' E 135°08'815.0
2017-Dec-02 00:30N 34°10' E 134°60'815.7
2017-Dec-02 00:01N 34°07' E 134°51'816.1
2017-Dec-01 23:30N 34°05' E 134°41'5 6.1
2017-Dec-01 22:37N 34°03' E 134°35'112.2
2017-Dec-01 22:30N 34°03' E 134°37'815.8
2017-Dec-01 22:00N 34°06' E 134°45'713.1
2017-Dec-01 21:30N 34°08' E 134°53'815.7
2017-Dec-01 21:00N 34°11' E 135°02'612.1
2017-Dec-01 20:30N 34°13' E 135°09'1 1.5
2017-Dec-01 20:01N 34°13' E 135°08'713.9
2017-Dec-01 19:30N 34°10' E 134°60'714.6
2017-Dec-01 19:00N 34°08' E 134°52'814.9
2017-Dec-01 18:30N 34°05' E 134°43'713.9
2017-Dec-01 18:00N 34°03' E 134°35'  

Dump ship's entire track history